Time;durP1;ratioP1;P1;durP2;ratioP2;P2;SDS_P1;SDS_P2;PMS_P1;PMS_P2;Temp;Humidity;BMP_temperature;BMP_pressure;BME280_temperature;BME280_humidity;BME280_pressure;Samples;Min_cycle;Max_cycle;Signal;HPM_P1;HPM_P2
2022/04/21 00:00:40;;;;;;;;;;;4.60;99.90;;;;;;4994987;28;19926;-69
2022/04/21 00:03:13;;;;;;;;;;;4.50;99.90;;;;;;4994849;28;19961;-68
2022/04/21 00:05:44;;;;;;;;;;;4.40;99.90;;;;;;5010587;28;19983;-69
2022/04/21 00:08:17;;;;;;;;;;;4.40;99.90;;;;;;4999632;28;19926;-71
2022/04/21 00:10:48;;;;;;;;;;;4.30;99.90;;;;;;4994309;28;20371;-71
2022/04/21 00:13:20;;;;;;;;;;;4.30;99.90;;;;;;5017038;28;19973;-71
2022/04/21 00:15:51;;;;;;;;;;;4.30;99.90;;;;;;5013806;28;19933;-71
2022/04/21 00:18:23;;;;;;;;;;;4.30;99.90;;;;;;5013439;28;19925;-71
2022/04/21 00:20:57;;;;;;;;;;;4.20;99.90;;;;;;5013816;28;19936;-71
2022/04/21 00:23:29;;;;;;;;;;;4.20;99.90;;;;;;5012576;28;20386;-71
2022/04/21 00:26:01;;;;;;;;;;;4.20;99.90;;;;;;5012336;28;19933;-71
2022/04/21 00:28:32;;;;;;;;;;;4.20;99.90;;;;;;5013604;28;19933;-71
2022/04/21 00:31:04;;;;;;;;;;;4.10;99.90;;;;;;5013449;28;19929;-71
2022/04/21 00:33:36;;;;;;;;;;;4.00;99.90;;;;;;5012794;28;19972;-71
2022/04/21 00:36:07;;;;;;;;;;;3.90;99.90;;;;;;5013299;28;20408;-71
2022/04/21 00:38:39;;;;;;;;;;;3.90;99.90;;;;;;5013442;28;20375;-71
2022/04/21 00:41:11;;;;;;;;;;;3.90;99.90;;;;;;5013217;28;20469;-71
2022/04/21 00:43:42;;;;;;;;;;;3.80;99.90;;;;;;5013223;28;19932;-71
2022/04/21 00:46:17;;;;;;;;;;;3.70;99.90;;;;;;5013346;28;19948;-71
2022/04/21 00:48:49;;;;;;;;;;;3.70;99.90;;;;;;5013230;28;19932;-71
2022/04/21 00:51:22;;;;;;;;;;;3.70;99.90;;;;;;5013286;28;19926;-72
2022/04/21 00:53:54;;;;;;;;;;;3.70;99.90;;;;;;5013141;28;19925;-71
2022/04/21 00:56:25;;;;;;;;;;;3.80;99.90;;;;;;5013197;28;20329;-71
2022/04/21 00:58:57;;;;;;;;;;;3.80;99.90;;;;;;5012126;28;20305;-71
2022/04/21 01:04:20;;;;;;;;;;;3.80;99.90;;;;;;5012537;28;19929;-71
2022/04/21 01:06:52;;;;;;;;;;;3.70;99.90;;;;;;5011333;28;19932;-71
2022/04/21 01:09:23;;;;;;;;;;;3.70;99.90;;;;;;5012371;28;19925;-71
2022/04/21 01:11:55;;;;;;;;;;;3.70;99.90;;;;;;5012505;28;19937;-71
2022/04/21 01:14:27;;;;;;;;;;;3.60;99.90;;;;;;5012282;28;19934;-71
2022/04/21 01:17:01;;;;;;;;;;;3.60;99.90;;;;;;5011167;28;19933;-71
2022/04/21 01:19:33;;;;;;;;;;;3.50;99.90;;;;;;5012400;28;19926;-71
2022/04/21 01:22:05;;;;;;;;;;;3.50;99.90;;;;;;5012305;28;20309;-71
2022/04/21 01:24:36;;;;;;;;;;;3.50;99.90;;;;;;5012298;28;20432;-71
2022/04/21 01:27:08;;;;;;;;;;;3.50;99.90;;;;;;5012346;28;19926;-71
2022/04/21 01:29:40;;;;;;;;;;;3.50;99.90;;;;;;5012286;28;19967;-70
2022/04/21 01:32:11;;;;;;;;;;;3.50;99.90;;;;;;5016251;28;19929;-71
2022/04/21 01:34:43;;;;;;;;;;;3.40;99.90;;;;;;5016096;28;19925;-71
2022/04/21 01:42:55;;;;;;;;;;;3.30;99.90;;;;;;4996462;28;19940;-71
2022/04/21 01:45:26;;;;;;;;;;;3.30;99.90;;;;;;5011521;28;19926;-71
2022/04/21 01:47:58;;;;;;;;;;;3.30;99.90;;;;;;4996384;28;19925;-72
2022/04/21 01:50:30;;;;;;;;;;;3.30;99.90;;;;;;4996610;28;19926;-71
2022/04/21 01:53:02;;;;;;;;;;;3.30;99.90;;;;;;4996115;28;19925;-71
2022/04/21 01:55:33;;;;;;;;;;;3.30;99.90;;;;;;4996207;28;19929;-71
2022/04/21 01:58:05;;;;;;;;;;;3.30;99.90;;;;;;4997059;28;19961;-72
2022/04/21 02:00:37;;;;;;;;;;;3.30;99.90;;;;;;5014644;28;19925;-71
2022/04/21 02:03:08;;;;;;;;;;;3.30;99.90;;;;;;5015465;28;19926;-71
2022/04/21 02:05:40;;;;;;;;;;;3.30;99.90;;;;;;5015660;28;19926;-71
2022/04/21 02:08:12;;;;;;;;;;;3.30;99.90;;;;;;4996183;28;19933;-72
2022/04/21 02:10:44;;;;;;;;;;;3.30;99.90;;;;;;4995981;28;19936;-71
2022/04/21 02:13:15;;;;;;;;;;;3.30;99.90;;;;;;4995581;28;19952;-71
2022/04/21 02:15:47;;;;;;;;;;;3.20;99.90;;;;;;4995835;28;19929;-71
2022/04/21 02:18:19;;;;;;;;;;;3.10;99.90;;;;;;4994765;28;20354;-72
2022/04/21 02:20:51;;;;;;;;;;;3.00;99.90;;;;;;4995922;28;19933;-72
2022/04/21 02:23:22;;;;;;;;;;;3.00;99.90;;;;;;4995563;28;19933;-71
2022/04/21 02:25:54;;;;;;;;;;;3.00;99.90;;;;;;5013835;28;19925;-71
2022/04/21 02:28:26;;;;;;;;;;;3.10;99.90;;;;;;5002961;28;19930;-71
2022/04/21 02:30:57;;;;;;;;;;;3.10;99.90;;;;;;4995847;28;20410;-71
2022/04/21 02:33:29;;;;;;;;;;;3.00;99.90;;;;;;4994264;28;20275;-71
2022/04/21 02:36:01;;;;;;;;;;;3.00;99.90;;;;;;4995536;28;19926;-71
2022/04/21 02:38:32;;;;;;;;;;;3.00;99.90;;;;;;4994303;28;19926;-71
2022/04/21 02:41:04;;;;;;;;;;;3.00;99.90;;;;;;4995308;28;19932;-71
2022/04/21 02:43:35;;;;;;;;;;;3.00;99.90;;;;;;5009962;28;19936;-71
2022/04/21 02:46:08;;;;;;;;;;;3.00;99.90;;;;;;4995302;28;20016;-72
2022/04/21 02:48:39;;;;;;;;;;;3.00;99.90;;;;;;4995242;28;20260;-71
2022/04/21 02:51:11;;;;;;;;;;;3.00;99.90;;;;;;4995448;28;19933;-71
2022/04/21 02:59:30;;;;;;;;;;;2.90;99.90;;;;;;4981075;28;19972;-72
2022/04/21 03:02:02;;;;;;;;;;;2.80;99.90;;;;;;5013918;28;19926;-71
2022/04/21 03:04:33;;;;;;;;;;;2.80;99.90;;;;;;5014809;28;20016;-71
2022/04/21 03:07:05;;;;;;;;;;;2.70;99.90;;;;;;5014610;28;19933;-71
2022/04/21 03:09:36;;;;;;;;;;;2.70;99.90;;;;;;5014376;28;20382;-71
2022/04/21 03:12:08;;;;;;;;;;;2.70;99.90;;;;;;5013023;28;19925;-70
2022/04/21 03:14:41;;;;;;;;;;;2.60;99.90;;;;;;5014352;28;19935;-71
2022/04/21 03:17:12;;;;;;;;;;;2.60;99.90;;;;;;5014927;28;19925;-71
2022/04/21 03:19:44;;;;;;;;;;;2.60;99.90;;;;;;5014650;28;19925;-71
2022/04/21 03:25:15;;;;;;;;;;;2.70;99.90;;;;;;5000621;28;20382;-71
2022/04/21 03:27:50;;;;;;;;;;;2.80;99.90;;;;;;5014752;28;19933;-71
2022/04/21 03:30:22;;;;;;;;;;;2.80;99.90;;;;;;5010612;28;19925;-72
2022/04/21 03:32:53;;;;;;;;;;;2.90;99.90;;;;;;5003869;28;19930;-72
2022/04/21 03:35:25;;;;;;;;;;;2.90;99.90;;;;;;4998488;28;20409;-72
2022/04/21 03:37:57;;;;;;;;;;;2.90;99.90;;;;;;5000366;28;20298;-72
2022/04/21 03:40:28;;;;;;;;;;;3.00;99.90;;;;;;5002293;28;20307;-72
2022/04/21 03:43:00;;;;;;;;;;;3.00;99.90;;;;;;4998596;28;19932;-72
2022/04/21 03:45:33;;;;;;;;;;;3.00;99.90;;;;;;5000478;28;19940;-72
2022/04/21 03:48:05;;;;;;;;;;;3.00;99.90;;;;;;4995044;28;20406;-72
2022/04/21 03:50:37;;;;;;;;;;;3.00;99.90;;;;;;5005801;28;20020;-72
2022/04/21 03:53:08;;;;;;;;;;;3.00;99.90;;;;;;5007090;28;20413;-72
2022/04/21 03:55:40;;;;;;;;;;;3.00;99.90;;;;;;4993653;28;19932;-72
2022/04/21 03:58:11;;;;;;;;;;;3.00;99.90;;;;;;5012528;28;19926;-72
2022/04/21 04:00:43;;;;;;;;;;;3.00;99.90;;;;;;5001714;28;19926;-72
2022/04/21 04:03:14;;;;;;;;;;;3.10;99.90;;;;;;5003004;28;19933;-73
2022/04/21 04:05:46;;;;;;;;;;;3.00;99.90;;;;;;4997772;28;19934;-72
2022/04/21 04:11:10;;;;;;;;;;;3.00;99.90;;;;;;5003257;28;19930;-73
2022/04/21 04:13:41;;;;;;;;;;;3.00;99.90;;;;;;5003773;28;19932;-72
2022/04/21 04:16:13;;;;;;;;;;;3.00;99.90;;;;;;4995327;28;19926;-72
2022/04/21 04:18:44;;;;;;;;;;;3.00;99.90;;;;;;4998275;28;19940;-73
2022/04/21 04:21:16;;;;;;;;;;;3.00;99.90;;;;;;5003068;28;20437;-73
2022/04/21 04:23:47;;;;;;;;;;;3.00;99.90;;;;;;5008017;28;19937;-72
2022/04/21 04:26:19;;;;;;;;;;;3.00;99.90;;;;;;5007598;28;19925;-72
2022/04/21 04:28:50;;;;;;;;;;;3.00;99.90;;;;;;5025282;28;19925;-73
2022/04/21 04:31:22;;;;;;;;;;;3.10;99.90;;;;;;5007738;28;20541;-72
2022/04/21 04:33:54;;;;;;;;;;;3.10;99.90;;;;;;5006561;28;20404;-72
2022/04/21 04:36:25;;;;;;;;;;;3.00;99.90;;;;;;5009388;28;19933;-73
2022/04/21 04:38:57;;;;;;;;;;;3.00;99.90;;;;;;5006992;28;20298;-72
2022/04/21 04:44:18;;;;;;;;;;;3.00;99.90;;;;;;5005107;28;19930;-73
2022/04/21 04:46:50;;;;;;;;;;;3.00;99.90;;;;;;5008000;28;19933;-72
2022/04/21 04:49:23;;;;;;;;;;;3.00;99.90;;;;;;5006604;28;19926;-73
2022/04/21 04:51:54;;;;;;;;;;;3.00;99.90;;;;;;5007966;28;20466;-73
2022/04/21 04:54:27;;;;;;;;;;;3.00;99.90;;;;;;5025446;28;20549;-72
2022/04/21 04:56:59;;;;;;;;;;;2.90;99.90;;;;;;5007367;28;20313;-72
2022/04/21 04:59:30;;;;;;;;;;;2.90;99.90;;;;;;5004592;28;19937;-72
2022/04/21 05:02:02;;;;;;;;;;;2.90;99.90;;;;;;5007679;28;20012;-72
2022/04/21 05:04:34;;;;;;;;;;;2.90;99.90;;;;;;5008673;28;19925;-72
2022/04/21 05:07:06;;;;;;;;;;;2.90;99.90;;;;;;5005280;28;19932;-72
2022/04/21 05:09:37;;;;;;;;;;;2.90;99.90;;;;;;5008029;28;20325;-73
2022/04/21 05:12:09;;;;;;;;;;;2.90;99.90;;;;;;5002913;28;20425;-72
2022/04/21 05:14:41;;;;;;;;;;;2.90;99.90;;;;;;5007620;28;19925;-72
2022/04/21 05:17:12;;;;;;;;;;;2.90;99.90;;;;;;5006813;28;19932;-72
2022/04/21 05:19:44;;;;;;;;;;;2.90;99.90;;;;;;5000739;28;19926;-73
2022/04/21 05:22:15;;;;;;;;;;;2.90;99.90;;;;;;5006842;28;19932;-72
2022/04/21 05:24:51;;;;;;;;;;;3.00;99.90;;;;;;5005979;28;19926;-72
2022/04/21 05:27:22;;;;;;;;;;;3.00;99.90;;;;;;5006754;28;19925;-73
2022/04/21 05:32:45;;;;;;;;;;;2.90;99.90;;;;;;5000079;28;20394;-72
2022/04/21 05:35:17;;;;;;;;;;;2.90;99.90;;;;;;5003830;28;19930;-70
2022/04/21 05:37:49;;;;;;;;;;;2.90;99.90;;;;;;4999411;28;19957;-73
2022/04/21 05:40:21;;;;;;;;;;;3.00;99.90;;;;;;5006775;28;20461;-73
2022/04/21 05:42:54;;;;;;;;;;;3.00;99.90;;;;;;5005409;28;19932;-73
2022/04/21 05:45:27;;;;;;;;;;;3.10;99.90;;;;;;5005815;28;20389;-73
2022/04/21 05:47:58;;;;;;;;;;;3.10;99.90;;;;;;5002574;28;19936;-73
2022/04/21 05:50:30;;;;;;;;;;;3.10;99.90;;;;;;5006037;28;20406;-73
2022/04/21 05:53:03;;;;;;;;;;;3.20;99.90;;;;;;5006498;28;19975;-72
2022/04/21 05:55:35;;;;;;;;;;;3.20;99.90;;;;;;5005821;28;19929;-73
2022/04/21 05:58:07;;;;;;;;;;;3.20;99.90;;;;;;5006045;28;19931;-72
2022/04/21 06:00:33;;;;;;;;;;;3.30;99.90;;;;;;4997815;28;19932;-72
2022/04/21 06:03:05;;;;;;;;;;;3.20;99.90;;;;;;5003976;28;19933;-73
2022/04/21 06:05:37;;;;;;;;;;;3.20;99.90;;;;;;5002499;28;19929;-73
2022/04/21 06:08:08;;;;;;;;;;;3.20;99.90;;;;;;5002493;28;19926;-73
2022/04/21 06:10:40;;;;;;;;;;;3.20;99.90;;;;;;4991477;28;19948;-73
2022/04/21 06:13:15;;;;;;;;;;;3.20;99.90;;;;;;5005556;28;19926;-73
2022/04/21 06:15:47;;;;;;;;;;;3.40;99.90;;;;;;4995742;28;19957;-73
2022/04/21 06:18:18;;;;;;;;;;;3.40;99.90;;;;;;4999377;28;20028;-72
2022/04/21 06:20:51;;;;;;;;;;;3.60;99.90;;;;;;5003475;28;19929;-73
2022/04/21 06:23:18;;;;;;;;;;;3.70;99.90;;;;;;5007928;28;20629;-71
2022/04/21 06:25:53;;;;;;;;;;;3.80;99.90;;;;;;5008581;28;19933;-70
2022/04/21 06:28:20;;;;;;;;;;;4.00;99.90;;;;;;5007112;28;19933;-70
2022/04/21 06:30:52;;;;;;;;;;;4.20;99.90;;;;;;5008428;28;19929;-70
2022/04/21 06:33:23;;;;;;;;;;;4.40;99.90;;;;;;5000409;28;20027;-71
2022/04/21 06:35:56;;;;;;;;;;;4.50;99.90;;;;;;5007094;28;19932;-70
2022/04/21 06:38:28;;;;;;;;;;;4.70;99.90;;;;;;5009700;28;20051;-70
2022/04/21 06:41:01;;;;;;;;;;;4.80;99.90;;;;;;5007526;28;20573;-70
2022/04/21 06:49:13;;;;;;;;;;;5.00;99.90;;;;;;5002498;28;19926;-70
2022/04/21 06:51:45;;;;;;;;;;;5.00;99.90;;;;;;4997071;28;20263;-70
2022/04/21 06:54:11;;;;;;;;;;;5.00;99.90;;;;;;5004634;28;19951;-70
2022/04/21 06:56:48;;;;;;;;;;;5.10;99.90;;;;;;5003608;28;20024;-70
2022/04/21 06:59:20;;;;;;;;;;;5.20;99.90;;;;;;5019991;28;19940;-71
2022/04/21 07:01:51;;;;;;;;;;;5.30;99.90;;;;;;4998875;28;19932;-71
2022/04/21 07:04:23;;;;;;;;;;;5.40;99.90;;;;;;5009178;28;19926;-71
2022/04/21 07:06:55;;;;;;;;;;;5.40;99.90;;;;;;5001381;28;19926;-70
2022/04/21 07:09:26;;;;;;;;;;;5.50;99.90;;;;;;5009213;28;19929;-70
2022/04/21 07:11:58;;;;;;;;;;;5.60;99.90;;;;;;5007475;28;19939;-70
2022/04/21 07:14:25;;;;;;;;;;;5.70;99.90;;;;;;4997179;28;20048;-70
2022/04/21 07:16:58;;;;;;;;;;;5.90;99.90;;;;;;5005209;28;20287;-70
2022/04/21 07:19:30;;;;;;;;;;;5.90;99.90;;;;;;4996395;28;19936;-70
2022/04/21 07:22:02;;;;;;;;;;;6.10;99.90;;;;;;5010574;28;19953;-70
2022/04/21 07:24:28;;;;;;;;;;;6.30;99.90;;;;;;5010526;28;19980;-70
2022/04/21 07:27:00;;;;;;;;;;;6.40;99.90;;;;;;5021763;28;19937;-70
2022/04/21 07:29:31;;;;;;;;;;;6.60;99.90;;;;;;4984838;28;19929;-71
2022/04/21 07:32:03;;;;;;;;;;;6.70;99.90;;;;;;5000735;28;19933;-70
2022/04/21 07:34:35;;;;;;;;;;;6.90;99.90;;;;;;5004248;28;19926;-70
2022/04/21 07:37:08;;;;;;;;;;;7.10;99.90;;;;;;5001935;28;20299;-71
2022/04/21 07:39:43;;;;;;;;;;;7.30;99.90;;;;;;5009542;28;19936;-70
2022/04/21 07:42:15;;;;;;;;;;;7.40;99.90;;;;;;5007837;28;19925;-70
2022/04/21 07:44:46;;;;;;;;;;;7.60;99.90;;;;;;5005453;28;19937;-70
2022/04/21 07:47:13;;;;;;;;;;;7.70;99.90;;;;;;5006134;28;19925;-70
2022/04/21 07:49:45;;;;;;;;;;;7.90;99.90;;;;;;4999793;28;20015;-70
2022/04/21 07:55:24;;;;;;;;;;;8.20;99.90;;;;;;5008655;28;19929;-70
2022/04/21 07:57:56;;;;;;;;;;;8.30;99.90;;;;;;5009677;28;19930;-71
2022/04/21 08:00:27;;;;;;;;;;;8.40;99.90;;;;;;5010060;28;19933;-70
2022/04/21 08:02:54;;;;;;;;;;;8.60;99.90;;;;;;5006215;28;19939;-70
2022/04/21 08:05:25;;;;;;;;;;;8.80;99.90;;;;;;4999292;28;19926;-73
2022/04/21 08:07:58;;;;;;;;;;;8.90;99.90;;;;;;5004611;28;20028;-72
2022/04/21 08:10:29;;;;;;;;;;;9.10;99.90;;;;;;5008179;28;20020;-73
2022/04/21 08:13:01;;;;;;;;;;;9.20;99.90;;;;;;5003407;28;19930;-72
2022/04/21 08:15:33;;;;;;;;;;;9.40;99.90;;;;;;4994714;28;19926;-73
2022/04/21 08:18:07;;;;;;;;;;;9.50;99.90;;;;;;5005449;28;19929;-70
2022/04/21 08:32:43;;;;;;;;;;;10.20;99.90;;;;;;5006578;28;19937;-73
2022/04/21 08:35:15;;;;;;;;;;;10.40;99.90;;;;;;5001322;28;19929;-70
2022/04/21 08:37:46;;;;;;;;;;;10.50;99.90;;;;;;5005413;28;19937;-70
2022/04/21 08:40:18;;;;;;;;;;;10.60;99.90;;;;;;4997201;28;19933;-70
2022/04/21 08:42:52;;;;;;;;;;;10.70;99.90;;;;;;5003711;28;19929;-70
2022/04/21 08:45:25;;;;;;;;;;;10.80;99.90;;;;;;5007063;28;19957;-71
2022/04/21 08:47:58;;;;;;;;;;;11.00;99.90;;;;;;4992010;28;19964;-70
2022/04/21 08:50:31;;;;;;;;;;;11.20;99.90;;;;;;5007006;28;19933;-70
2022/04/21 08:53:03;;;;;;;;;;;11.30;99.90;;;;;;5019495;28;19976;-70
2022/04/21 08:55:35;;;;;;;;;;;11.40;99.90;;;;;;5012719;28;19975;-70
2022/04/21 08:58:02;;;;;;;;;;;11.60;99.90;;;;;;5002484;28;20290;-69
2022/04/21 09:00:31;;;;;;;;;;;11.60;99.90;;;;;;5010409;28;19925;-70
2022/04/21 09:03:04;;;;;;;;;;;11.70;99.90;;;;;;5009101;28;19925;-70
2022/04/21 09:05:36;;;;;;;;;;;11.80;99.90;;;;;;5004091;28;19929;-70
2022/04/21 09:08:21;;;;;;;;;;;11.90;99.60;;;;;;4995935;28;19984;-70
2022/04/21 09:11:02;;;;;;;;;;;11.90;99.60;;;;;;5018950;28;19926;-70
2022/04/21 09:13:41;;;;;;;;;;;12.10;99.90;;;;;;5022326;28;20382;-70
2022/04/21 09:16:14;;;;;;;;;;;12.20;98.20;;;;;;5004675;28;20624;-70
2022/04/21 09:18:44;;;;;;;;;;;12.30;97.80;;;;;;5003323;28;19925;-70
2022/04/21 09:21:16;;;;;;;;;;;12.40;97.60;;;;;;4983407;28;19944;-70
2022/04/21 09:23:48;;;;;;;;;;;12.50;96.10;;;;;;4987526;28;19926;-70
2022/04/21 09:26:21;;;;;;;;;;;12.60;95.20;;;;;;5010169;28;19930;-70
2022/04/21 09:28:56;;;;;;;;;;;12.80;95.40;;;;;;5006415;28;20445;-70
2022/04/21 09:31:29;;;;;;;;;;;12.80;93.40;;;;;;4998209;28;20461;-70
2022/04/21 09:33:56;;;;;;;;;;;13.00;93.00;;;;;;4996556;28;20089;-70
2022/04/21 09:36:22;;;;;;;;;;;13.00;92.80;;;;;;5003632;28;19930;-70
2022/04/21 09:39:05;;;;;;;;;;;13.10;90.90;;;;;;4982966;28;19933;-69
2022/04/21 09:41:36;;;;;;;;;;;13.20;90.90;;;;;;5009058;28;19964;-69
2022/04/21 09:46:07;;;;;;;;;;;13.20;89.90;;;;;;5005340;28;20662;-70
2022/04/21 09:46:56;;;;;;;;;;;13.30;85.80;;;;;;5001235;28;20390;-70
2022/04/21 09:49:34;;;;;;;;;;;13.40;88.70;;;;;;5005755;28;19937;-70
2022/04/21 09:52:06;;;;;;;;;;;13.40;91.00;;;;;;5003472;28;19976;-70
2022/04/21 09:54:34;;;;;;;;;;;13.60;89.00;;;;;;5027774;28;19975;-70
2022/04/21 09:57:07;;;;;;;;;;;13.70;88.70;;;;;;4994670;28;19925;-69
2022/04/21 09:59:40;;;;;;;;;;;13.80;87.60;;;;;;5003673;28;20087;-70
2022/04/21 10:02:07;;;;;;;;;;;13.80;87.60;;;;;;5005733;28;19936;-70
2022/04/21 10:04:42;;;;;;;;;;;13.80;86.70;;;;;;5011164;28;19929;-69
2022/04/21 10:07:15;;;;;;;;;;;13.90;88.10;;;;;;4993730;28;19925;-70
2022/04/21 10:09:47;;;;;;;;;;;14.00;85.80;;;;;;5008123;28;20438;-72
2022/04/21 10:12:19;;;;;;;;;;;14.10;83.80;;;;;;5002923;28;19933;-70
2022/04/21 10:14:52;;;;;;;;;;;14.10;85.40;;;;;;5024189;28;19932;-69
2022/04/21 10:17:23;;;;;;;;;;;14.20;83.60;;;;;;5005329;28;19937;-69
2022/04/21 10:19:55;;;;;;;;;;;14.30;79.40;;;;;;5006576;28;19952;-70
2022/04/21 10:22:31;;;;;;;;;;;14.40;80.60;;;;;;5007545;28;19926;-70
2022/04/21 10:25:04;;;;;;;;;;;14.50;78.50;;;;;;5021892;28;19945;-70
2022/04/21 10:27:47;;;;;;;;;;;14.50;77.30;;;;;;5022738;28;20003;-69
2022/04/21 10:30:15;;;;;;;;;;;14.60;79.80;;;;;;5011789;28;19930;-69
2022/04/21 10:32:48;;;;;;;;;;;14.60;79.20;;;;;;5010826;28;19948;-71
2022/04/21 10:35:23;;;;;;;;;;;14.60;78.50;;;;;;5025077;28;20574;-70
2022/04/21 10:38:09;;;;;;;;;;;14.60;78.70;;;;;;5011034;28;19929;-71
2022/04/21 10:40:53;;;;;;;;;;;14.70;78.30;;;;;;5006813;28;19936;-71
2022/04/21 10:43:27;;;;;;;;;;;14.80;78.60;;;;;;5024855;28;19929;-69
2022/04/21 10:46:16;;;;;;;;;;;14.90;75.70;;;;;;5010001;28;19929;-69
2022/04/21 10:48:48;;;;;;;;;;;14.90;75.40;;;;;;5006143;28;19930;-70
2022/04/21 10:51:38;;;;;;;;;;;14.80;74.50;;;;;;5008784;28;19933;-70
2022/04/21 10:57:13;;;;;;;;;;;14.90;77.20;;;;;;5008001;28;19932;-69
2022/04/21 10:59:50;;;;;;;;;;;14.90;76.00;;;;;;5020402;28;20488;-70
2022/04/21 11:02:36;;;;;;;;;;;15.00;75.50;;;;;;4991286;28;19929;-70
2022/04/21 11:05:26;;;;;;;;;;;15.00;76.40;;;;;;5010080;28;19930;-71
2022/04/21 11:07:58;;;;;;;;;;;15.10;76.30;;;;;;5025242;28;19929;-69
2022/04/21 11:10:39;;;;;;;;;;;15.20;76.70;;;;;;5007966;28;19926;-70
2022/04/21 11:13:16;;;;;;;;;;;15.20;77.30;;;;;;5002316;28;19929;-70
2022/04/21 11:15:53;;;;;;;;;;;15.30;75.30;;;;;;5007996;28;20289;-69
2022/04/21 11:18:29;;;;;;;;;;;15.40;76.20;;;;;;5007620;28;20321;-70
2022/04/21 11:21:28;;;;;;;;;;;15.40;77.70;;;;;;5009363;28;19964;-70
2022/04/21 11:24:01;;;;;;;;;;;15.50;74.50;;;;;;5006805;28;19936;-70
2022/04/21 11:26:32;;;;;;;;;;;15.50;76.60;;;;;;5006022;28;20673;-69
2022/04/21 11:29:04;;;;;;;;;;;15.60;76.30;;;;;;5007343;28;19930;-70
2022/04/21 11:31:36;;;;;;;;;;;15.80;74.90;;;;;;5005134;28;20016;-70
2022/04/21 11:34:07;;;;;;;;;;;15.80;74.20;;;;;;5010741;28;20394;-70
2022/04/21 11:36:41;;;;;;;;;;;15.90;73.10;;;;;;5009586;28;20493;-69
2022/04/21 11:39:13;;;;;;;;;;;15.90;73.10;;;;;;5007882;28;19940;-70
2022/04/21 11:41:47;;;;;;;;;;;15.90;74.60;;;;;;5005811;28;19930;-70
2022/04/21 11:44:22;;;;;;;;;;;16.10;73.70;;;;;;5004608;28;19929;-70
2022/04/21 11:46:54;;;;;;;;;;;16.00;72.90;;;;;;5009505;28;19925;-69
2022/04/21 11:49:25;;;;;;;;;;;16.00;72.60;;;;;;5002653;28;19930;-70
2022/04/21 11:51:57;;;;;;;;;;;16.00;73.20;;;;;;5008323;28;19941;-70
2022/04/21 11:54:28;;;;;;;;;;;16.10;73.00;;;;;;5021471;28;19936;-72
2022/04/21 11:57:01;;;;;;;;;;;16.20;70.00;;;;;;5010589;28;20013;-72
2022/04/21 11:59:34;;;;;;;;;;;16.20;70.80;;;;;;5006307;28;19936;-70
2022/04/21 12:07:48;;;;;;;;;;;16.60;69.10;;;;;;5024105;28;19960;-71
2022/04/21 12:10:19;;;;;;;;;;;16.60;70.50;;;;;;5009984;28;19969;-68
2022/04/21 12:12:51;;;;;;;;;;;16.60;69.50;;;;;;5000681;28;19993;-68
2022/04/21 12:15:27;;;;;;;;;;;16.60;71.00;;;;;;5010871;28;19941;-70
2022/04/21 12:18:02;;;;;;;;;;;16.60;71.90;;;;;;5005674;28;19934;-70
2022/04/21 12:20:51;;;;;;;;;;;16.70;70.30;;;;;;5007860;28;19929;-70
2022/04/21 12:23:27;;;;;;;;;;;16.70;68.50;;;;;;5005360;28;19930;-73
2022/04/21 12:25:59;;;;;;;;;;;16.80;69.00;;;;;;5005693;28;19952;-70
2022/04/21 12:28:44;;;;;;;;;;;16.80;69.50;;;;;;5005522;28;19937;-70
2022/04/21 12:31:19;;;;;;;;;;;16.70;69.00;;;;;;5006559;28;19930;-70
2022/04/21 12:33:51;;;;;;;;;;;16.80;69.70;;;;;;5003606;28;19930;-70
2022/04/21 12:36:26;;;;;;;;;;;16.90;69.90;;;;;;5005027;28;19925;-70
2022/04/21 12:39:01;;;;;;;;;;;17.00;69.00;;;;;;5002620;28;19948;-70
2022/04/21 12:41:32;;;;;;;;;;;17.10;67.90;;;;;;5006019;28;19929;-70
2022/04/21 12:44:04;;;;;;;;;;;17.20;69.50;;;;;;5009112;28;19929;-70
2022/04/21 12:46:36;;;;;;;;;;;17.20;69.40;;;;;;5005053;28;20402;-70
2022/04/21 12:49:08;;;;;;;;;;;17.30;67.70;;;;;;5009024;28;19968;-70
2022/04/21 12:51:47;;;;;;;;;;;17.40;68.30;;;;;;5002878;28;19937;-70
2022/04/21 12:54:26;;;;;;;;;;;17.50;67.90;;;;;;5008664;28;19936;-70
2022/04/21 12:56:57;;;;;;;;;;;17.50;69.10;;;;;;5018381;28;20031;-70
2022/04/21 12:59:29;;;;;;;;;;;17.70;66.50;;;;;;5006416;28;19929;-70
2022/04/21 13:02:00;;;;;;;;;;;17.70;64.80;;;;;;5007578;28;19929;-70
2022/04/21 13:04:32;;;;;;;;;;;17.70;65.20;;;;;;5006728;28;19929;-71
2022/04/21 13:07:04;;;;;;;;;;;17.70;66.00;;;;;;5006471;28;19936;-69
2022/04/21 13:09:35;;;;;;;;;;;17.90;67.40;;;;;;5003346;28;19933;-70
2022/04/21 13:12:07;;;;;;;;;;;17.90;67.00;;;;;;5004638;28;19926;-70
2022/04/21 13:14:39;;;;;;;;;;;18.00;66.30;;;;;;5001584;28;19930;-70
2022/04/21 13:17:11;;;;;;;;;;;18.10;64.70;;;;;;4986147;28;19929;-69
2022/04/21 13:19:42;;;;;;;;;;;18.20;65.30;;;;;;5006027;28;20334;-69
2022/04/21 13:22:14;;;;;;;;;;;18.30;64.90;;;;;;4996424;28;20398;-70
2022/04/21 13:24:45;;;;;;;;;;;18.30;61.60;;;;;;4993953;28;19926;-70
2022/04/21 13:27:19;;;;;;;;;;;18.40;62.90;;;;;;4997847;28;19929;-69
2022/04/21 13:29:50;;;;;;;;;;;18.40;61.70;;;;;;5003696;28;20015;-70
2022/04/21 13:35:12;;;;;;;;;;;18.70;62.90;;;;;;5003605;28;19926;-70
2022/04/21 13:37:44;;;;;;;;;;;18.50;60.70;;;;;;4997569;28;19929;-69
2022/04/21 13:40:15;;;;;;;;;;;18.40;61.60;;;;;;5005556;28;19996;-70
2022/04/21 13:42:47;;;;;;;;;;;18.40;62.90;;;;;;4994352;28;19926;-70
2022/04/21 13:45:19;;;;;;;;;;;18.40;63.50;;;;;;5004962;28;19926;-70
2022/04/21 13:47:50;;;;;;;;;;;18.60;62.20;;;;;;5000278;28;20326;-69
2022/04/21 13:50:22;;;;;;;;;;;18.70;60.50;;;;;;4997532;28;19925;-70
2022/04/21 13:52:54;;;;;;;;;;;18.80;60.70;;;;;;5000669;28;19929;-70
2022/04/21 13:55:25;;;;;;;;;;;18.90;61.10;;;;;;4996915;28;19926;-69
2022/04/21 13:58:00;;;;;;;;;;;19.00;61.10;;;;;;5018761;28;19941;-70
2022/04/21 14:00:32;;;;;;;;;;;19.00;59.60;;;;;;5004868;28;19932;-70
2022/04/21 14:03:04;;;;;;;;;;;19.20;58.80;;;;;;5006661;28;19925;-69
2022/04/21 14:05:37;;;;;;;;;;;19.20;59.10;;;;;;5001606;28;19926;-70
2022/04/21 14:08:09;;;;;;;;;;;19.10;57.60;;;;;;5000743;28;19933;-70
2022/04/21 14:10:44;;;;;;;;;;;18.80;58.40;;;;;;4999030;28;19937;-69
2022/04/21 14:13:16;;;;;;;;;;;18.80;59.20;;;;;;5025006;28;19980;-70
2022/04/21 14:15:49;;;;;;;;;;;18.60;58.50;;;;;;5004438;28;20401;-70
2022/04/21 14:18:21;;;;;;;;;;;18.90;59.30;;;;;;5006950;28;19933;-71
2022/04/21 14:20:54;;;;;;;;;;;19.30;57.90;;;;;;5006653;28;19933;-70
2022/04/21 14:23:25;;;;;;;;;;;19.90;58.60;;;;;;5001675;28;20540;-70
2022/04/21 14:25:57;;;;;;;;;;;20.10;56.20;;;;;;5007903;28;19933;-70
2022/04/21 14:28:28;;;;;;;;;;;20.30;55.80;;;;;;5000645;28;20390;-70
2022/04/21 14:31:00;;;;;;;;;;;20.50;55.20;;;;;;4999439;28;19929;-70
2022/04/21 14:33:33;;;;;;;;;;;20.60;55.40;;;;;;5003361;28;19925;-70
2022/04/21 14:36:05;;;;;;;;;;;20.60;54.70;;;;;;5005075;28;20297;-70
2022/04/21 14:44:17;;;;;;;;;;;19.90;55.80;;;;;;5003593;28;19936;-70
2022/04/21 14:46:49;;;;;;;;;;;19.40;56.10;;;;;;5003351;28;19926;-69
2022/04/21 14:49:20;;;;;;;;;;;19.10;56.20;;;;;;5004406;28;19930;-70
2022/04/21 14:51:52;;;;;;;;;;;18.80;56.90;;;;;;5001784;28;19933;-70
2022/04/21 14:54:23;;;;;;;;;;;18.70;57.10;;;;;;5006311;28;20350;-69
2022/04/21 14:56:55;;;;;;;;;;;19.10;56.60;;;;;;4999632;28;19926;-70
2022/04/21 14:59:27;;;;;;;;;;;19.50;56.00;;;;;;5004920;28;20297;-70
2022/04/21 15:01:58;;;;;;;;;;;19.80;56.30;;;;;;5009105;28;19972;-70
2022/04/21 15:04:30;;;;;;;;;;;20.50;55.20;;;;;;5012353;28;19930;-69
2022/04/21 15:07:02;;;;;;;;;;;20.90;52.80;;;;;;5012647;28;19933;-69
2022/04/21 15:09:34;;;;;;;;;;;20.70;52.60;;;;;;5014925;28;20044;-69
2022/04/21 15:12:06;;;;;;;;;;;21.10;51.60;;;;;;5010661;28;19930;-69
2022/04/21 15:14:33;;;;;;;;;;;21.60;51.50;;;;;;5000779;28;19948;-71
2022/04/21 15:17:04;;;;;;;;;;;22.00;51.90;;;;;;5005921;28;19926;-71
2022/04/21 15:19:36;;;;;;;;;;;22.40;50.70;;;;;;5005141;28;19933;-71
2022/04/21 15:22:08;;;;;;;;;;;22.70;49.70;;;;;;5001329;28;20016;-70
2022/04/21 15:24:41;;;;;;;;;;;22.20;49.50;;;;;;5003335;28;19930;-71
2022/04/21 15:27:13;;;;;;;;;;;22.20;49.10;;;;;;5004057;28;19926;-70
2022/04/21 15:29:45;;;;;;;;;;;22.40;49.60;;;;;;5009757;28;19929;-73
2022/04/21 15:32:17;;;;;;;;;;;22.60;49.50;;;;;;5006391;28;19936;-73
2022/04/21 15:34:48;;;;;;;;;;;22.90;49.00;;;;;;5009382;28;20677;-71
2022/04/21 15:37:20;;;;;;;;;;;22.80;48.60;;;;;;5005398;28;19933;-70
2022/04/21 15:39:52;;;;;;;;;;;23.10;47.50;;;;;;5008054;28;19930;-70
2022/04/21 15:42:23;;;;;;;;;;;23.20;46.90;;;;;;5004233;28;19933;-71
2022/04/21 15:44:55;;;;;;;;;;;23.50;46.70;;;;;;5006957;28;19926;-71
2022/04/21 15:47:27;;;;;;;;;;;23.40;46.90;;;;;;5007375;28;19925;-71
2022/04/21 15:49:59;;;;;;;;;;;23.60;46.10;;;;;;5002955;28;19925;-71
2022/04/21 15:52:34;;;;;;;;;;;23.70;46.20;;;;;;5008492;28;19926;-70
2022/04/21 16:00:48;;;;;;;;;;;23.90;45.30;;;;;;5004515;28;20444;-70
2022/04/21 16:03:19;;;;;;;;;;;23.80;45.70;;;;;;5006290;28;20442;-71